createdAt,value
2023-02-09T00:01:57.101Z,73.03
2023-02-09T00:07:01.733Z,73.18
2023-02-09T00:12:24.275Z,72.73
2023-02-09T00:17:28.161Z,73.06
2023-02-09T00:22:32.527Z,72.69
2023-02-09T00:27:36.325Z,73.23
2023-02-09T00:32:40.363Z,72.69
2023-02-09T00:37:44.428Z,72.74
2023-02-09T00:42:49.904Z,72.64
2023-02-09T00:47:54.100Z,72.63
2023-02-09T00:52:57.934Z,72.70
2023-02-09T00:58:01.782Z,73.02
2023-02-09T01:03:06.097Z,72.41
2023-02-09T01:08:10.224Z,72.72
2023-02-09T01:13:14.124Z,72.23
2023-02-09T01:18:18.615Z,72.13
2023-02-09T01:23:23.392Z,72.39
2023-02-09T01:28:26.852Z,72.42
2023-02-09T01:33:32.267Z,71.99
2023-02-09T01:38:36.115Z,72.53
2023-02-09T01:43:54.274Z,72.07
2023-02-09T01:49:28.101Z,72.33
2023-02-09T01:54:43.195Z,72.24
2023-02-09T01:59:53.024Z,72.14
2023-02-09T02:04:57.093Z,72.04
2023-02-09T02:10:03.166Z,72.20
2023-02-09T02:15:07.922Z,72.05
2023-02-09T02:20:30.925Z,71.83
2023-02-09T02:25:54.394Z,72.33
2023-02-09T02:31:29.645Z,72.04
2023-02-09T02:36:57.816Z,72.16
2023-02-09T02:42:29.129Z,72.18
2023-02-09T02:47:37.555Z,72.08
2023-02-09T02:52:46.112Z,72.21
2023-02-09T02:57:56.469Z,72.09
2023-02-09T03:03:05.783Z,72.08
2023-02-09T03:08:09.665Z,72.20
2023-02-09T03:13:39.938Z,72.24
2023-02-09T03:19:17.139Z,72.30
2023-02-09T03:24:32.004Z,72.31
2023-02-09T03:29:37.683Z,72.72
2023-02-09T03:34:41.567Z,72.16
2023-02-09T03:39:45.837Z,72.44
2023-02-09T03:44:49.746Z,72.27
2023-02-09T03:49:53.710Z,72.50
2023-02-09T03:54:57.445Z,72.67
2023-02-09T04:00:02.405Z,72.11
2023-02-09T04:05:15.551Z,72.37
2023-02-09T04:10:20.460Z,72.01
2023-02-09T04:15:24.622Z,72.28
2023-02-09T04:20:28.539Z,72.19
2023-02-09T04:25:32.578Z,71.95
2023-02-09T04:30:36.640Z,72.32
2023-02-09T04:36:41.097Z,72.83
2023-02-09T04:41:44.928Z,72.17
2023-02-09T04:46:48.706Z,72.10
2023-02-09T04:51:52.567Z,72.49
2023-02-09T04:57:16.349Z,72.40
2023-02-09T05:02:20.129Z,72.03
2023-02-09T05:07:24.064Z,72.70
2023-02-09T05:12:27.896Z,72.43
2023-02-09T05:17:35.178Z,72.31
2023-02-09T05:22:38.927Z,72.63
2023-02-09T05:27:42.903Z,72.69
2023-02-09T05:32:46.893Z,72.72
2023-02-09T05:37:50.771Z,72.36
2023-02-09T05:42:55.851Z,72.54
2023-02-09T05:47:59.763Z,72.81
2023-02-09T05:53:05.214Z,72.42
2023-02-09T05:58:09.016Z,72.38
2023-02-09T06:03:13.082Z,72.58
2023-02-09T06:08:16.914Z,73.11
2023-02-09T06:13:21.137Z,72.39
2023-02-09T06:18:25.281Z,72.70
2023-02-09T06:23:29.085Z,72.88
2023-02-09T06:28:33.261Z,72.55
2023-02-09T06:33:38.846Z,72.50
2023-02-09T06:38:43.511Z,72.98
2023-02-09T06:43:47.261Z,73.27
2023-02-09T06:48:51.278Z,73.25
2023-02-09T06:53:57.096Z,72.94
2023-02-09T06:59:00.968Z,72.74
2023-02-09T07:04:04.980Z,72.94
2023-02-09T07:09:09.381Z,72.46
2023-02-09T07:14:13.423Z,73.08
2023-02-09T07:19:17.447Z,72.63
2023-02-09T07:24:21.357Z,72.78
2023-02-09T07:29:25.315Z,73.42
2023-02-09T07:34:29.225Z,73.55
2023-02-09T07:39:33.738Z,73.04
2023-02-09T07:44:37.551Z,73.42
2023-02-09T07:49:41.667Z,73.50
2023-02-09T07:54:45.695Z,73.17
2023-02-09T07:59:49.442Z,72.76
2023-02-09T08:04:56.128Z,72.76
2023-02-09T08:09:59.519Z,73.26
2023-02-09T08:15:04.352Z,73.13
2023-02-09T08:20:15.408Z,72.98
2023-02-09T08:25:23.351Z,72.82
2023-02-09T08:30:27.220Z,73.09
2023-02-09T08:35:31.399Z,73.02
2023-02-09T08:40:41.965Z,73.18
2023-02-09T08:45:46.925Z,72.91
2023-02-09T08:50:51.032Z,72.86
2023-02-09T08:55:55.185Z,73.27
2023-02-09T09:01:00.556Z,73.04
2023-02-09T09:06:07.505Z,72.57
2023-02-09T09:11:13.625Z,73.26
2023-02-09T09:16:20.391Z,72.94
2023-02-09T09:21:27.602Z,72.72
2023-02-09T09:26:31.459Z,72.70
2023-02-09T09:31:35.626Z,72.77
2023-02-09T09:36:39.510Z,73.04
2023-02-09T09:41:46.762Z,72.47
2023-02-09T09:46:54.533Z,72.62
2023-02-09T09:52:06.365Z,73.30
2023-02-09T09:57:26.506Z,72.62
2023-02-09T10:02:34.552Z,73.22
2023-02-09T10:07:41.335Z,72.95
2023-02-09T10:12:52.187Z,72.81
2023-02-09T10:17:58.145Z,72.89
2023-02-09T10:23:02.143Z,72.61
2023-02-09T10:28:07.705Z,72.44
2023-02-09T10:33:16.341Z,72.99
2023-02-09T10:38:23.247Z,72.65
2023-02-09T10:43:31.626Z,72.53
2023-02-09T10:48:42.674Z,72.74
2023-02-09T10:54:07.102Z,72.88
2023-02-09T10:59:23.625Z,73.14
2023-02-09T11:04:37.506Z,72.94
2023-02-09T11:09:51.938Z,72.64
2023-02-09T11:14:57.179Z,72.73
2023-02-09T11:20:37.545Z,73.05
2023-02-09T11:26:02.491Z,72.67
2023-02-09T11:31:45.003Z,73.28
2023-02-09T11:37:21.194Z,73.07
2023-02-09T11:42:45.305Z,73.02
2023-02-09T11:47:59.082Z,72.93
2023-02-09T11:53:38.058Z,73.35
2023-02-09T11:58:52.484Z,72.91
2023-02-09T12:04:33.683Z,72.44
2023-02-09T12:10:12.418Z,72.69
2023-02-09T12:15:28.049Z,73.09
2023-02-09T12:20:38.124Z,73.16
2023-02-09T12:26:01.158Z,72.66
2023-02-09T12:31:17.921Z,72.76
2023-02-09T12:36:34.948Z,72.71
2023-02-09T12:41:40.922Z,72.96
2023-02-09T12:46:56.415Z,72.94
2023-02-09T12:52:03.301Z,73.19
2023-02-09T12:57:16.289Z,73.09
2023-02-09T13:02:25.204Z,72.50
2023-02-09T13:08:08.790Z,73.28
2023-02-09T13:13:12.798Z,73.19
2023-02-09T13:18:25.317Z,73.20
2023-02-09T13:23:59.502Z,72.57
2023-02-09T13:29:20.880Z,72.47
2023-02-09T13:34:36.981Z,72.26
2023-02-09T13:39:42.649Z,72.67
2023-02-09T13:44:47.181Z,72.15
2023-02-09T13:50:03.243Z,72.73
2023-02-09T13:55:18.902Z,72.42
2023-02-09T14:00:38.141Z,72.64
2023-02-09T14:05:49.162Z,72.53
2023-02-09T14:10:59.258Z,72.39
2023-02-09T14:16:08.043Z,72.28
2023-02-09T14:21:16.324Z,72.40
2023-02-09T14:26:25.370Z,72.18
2023-02-09T14:31:29.163Z,72.36
2023-02-09T14:36:38.472Z,72.42
2023-02-09T14:41:42.297Z,71.92
2023-02-09T14:47:01.062Z,71.98
2023-02-09T14:52:14.805Z,72.41
2023-02-09T14:57:20.962Z,72.57
2023-02-09T15:02:28.133Z,72.49
2023-02-09T15:07:37.029Z,72.51
2023-02-09T15:12:41.507Z,72.52
2023-02-09T15:17:45.773Z,72.08
2023-02-09T15:22:49.564Z,71.76
2023-02-09T15:28:03.612Z,71.46
2023-02-09T15:33:10.738Z,71.59
2023-02-09T15:38:17.389Z,71.90
2023-02-09T15:43:44.178Z,72.01
2023-02-09T15:48:48.129Z,71.17
2023-02-09T15:53:53.844Z,71.75
2023-02-09T15:59:04.216Z,71.56
2023-02-09T16:04:15.265Z,72.37
2023-02-09T16:09:24.585Z,71.92
2023-02-09T16:14:28.977Z,71.83
2023-02-09T16:19:33.260Z,71.73
2023-02-09T16:24:48.133Z,71.67
2023-02-09T16:29:52.071Z,72.25
2023-02-09T16:35:04.566Z,71.58
2023-02-09T16:40:17.960Z,71.57
2023-02-09T16:45:23.537Z,71.43
2023-02-09T16:50:35.146Z,71.30
2023-02-09T16:55:42.577Z,71.40
2023-02-09T17:00:48.282Z,71.62
2023-02-09T17:05:54.961Z,71.30
2023-02-09T17:10:59.951Z,71.29
2023-02-09T17:16:09.736Z,71.05
2023-02-09T17:21:28.048Z,71.16
2023-02-09T17:26:32.200Z,71.23
2023-02-09T17:31:51.884Z,71.59
2023-02-09T17:36:57.679Z,71.29
2023-02-09T17:42:01.499Z,70.71
2023-02-09T17:47:07.083Z,70.53
2023-02-09T17:52:18.837Z,70.59
2023-02-09T17:57:22.679Z,70.58
2023-02-09T18:02:26.607Z,70.82
2023-02-09T18:07:30.335Z,70.72
2023-02-09T18:12:35.078Z,70.52
2023-02-09T18:17:42.781Z,70.97
2023-02-09T18:22:47.081Z,70.53
2023-02-09T18:27:52.310Z,70.32
2023-02-09T18:32:57.668Z,70.14
2023-02-09T18:38:03.456Z,70.55
2023-02-09T18:43:08.659Z,70.23
2023-02-09T18:48:12.740Z,70.46
2023-02-09T18:53:16.584Z,70.38
2023-02-09T18:58:20.590Z,70.68
2023-02-09T19:03:24.699Z,70.61
2023-02-09T19:08:28.106Z,70.46
2023-02-09T19:13:34.730Z,70.29
2023-02-09T19:18:40.195Z,70.25
2023-02-09T19:23:44.348Z,69.81
2023-02-09T19:28:49.201Z,69.86
2023-02-09T19:34:01.958Z,69.86
2023-02-09T19:39:05.833Z,70.14
2023-02-09T19:44:10.009Z,69.75
2023-02-09T19:49:13.903Z,69.46
2023-02-09T19:54:17.530Z,69.71
2023-02-09T19:59:21.289Z,69.81
2023-02-09T20:04:25.171Z,70.06
2023-02-09T20:09:28.906Z,70.10
2023-02-09T20:14:33.894Z,70.01
2023-02-09T20:19:38.083Z,69.93
2023-02-09T20:24:43.748Z,70.20
2023-02-09T20:29:47.706Z,70.15
2023-02-09T20:34:51.222Z,69.69
2023-02-09T20:39:55.293Z,69.52
2023-02-09T20:45:17.642Z,70.20
2023-02-09T20:50:21.495Z,69.89
2023-02-09T20:55:25.183Z,69.34
2023-02-09T21:00:29.545Z,69.25
2023-02-09T21:05:33.395Z,69.63
2023-02-09T21:10:39.466Z,69.58
2023-02-09T21:15:43.354Z,69.39
2023-02-09T21:20:47.091Z,68.84
2023-02-09T21:25:51.198Z,69.22
2023-02-09T21:30:55.856Z,69.65
2023-02-09T21:35:59.645Z,69.62
2023-02-09T21:41:07.426Z,69.19
2023-02-09T21:46:17.217Z,69.51
2023-02-09T21:51:21.317Z,69.08
2023-02-09T21:56:25.337Z,68.63
2023-02-09T22:01:31.726Z,68.54
2023-02-09T22:06:35.757Z,68.72
2023-02-09T22:11:39.699Z,69.03
2023-02-09T22:16:44.204Z,69.10
2023-02-09T22:21:48.240Z,69.15
2023-02-09T22:26:52.416Z,69.14
2023-02-09T22:31:57.887Z,69.43
2023-02-09T22:37:02.245Z,68.93
2023-02-09T22:42:06.715Z,69.31
2023-02-09T22:47:10.538Z,68.99
2023-02-09T22:52:14.384Z,68.77
2023-02-09T22:57:18.567Z,68.93
2023-02-09T23:02:22.331Z,68.96
2023-02-09T23:07:27.092Z,68.75
2023-02-09T23:12:30.795Z,69.17
2023-02-09T23:17:34.324Z,68.89
2023-02-09T23:22:38.233Z,68.95
2023-02-09T23:27:42.155Z,68.83
2023-02-09T23:32:45.712Z,68.93
2023-02-09T23:37:49.519Z,69.00
2023-02-09T23:42:53.408Z,68.35
2023-02-09T23:47:57.287Z,68.66
2023-02-09T23:53:01.120Z,69.00
2023-02-09T23:58:05.094Z,68.53
